Amelia, Louisiana
Current Conditions -  °F | °C
As of 1:55 PM on Saturday 25 Oct 2014 (Local Time) from KPTN Reporting Station
Clear Clear  
Wind Chill: 79°   Ceiling: Unl
Heat Index: 79°   Visibility: 10mi
Dew Point: 54°   Wind: 5mph
Humidity: 42%   Direction: 340°NNW
Pressure: 30.14"   Gusts: NA
Location:  29.67°N, 91.1°W
Report Text: KPTN 251855Z AUTO 34004KT 10SM CLR 26/12 A3014 RMK AO1
Loading
Personal Weather Stations






























Interactive Weather Map
Tropical Storm Tracking
New forecast layout! Learn more

10-Day Weather Forecast

Advertisements
Track Severe Weather on mobile